createdAt,value
2016-03-09T16:46:07.380Z,67.75
2016-03-09T16:46:19.318Z,67.85
2016-03-09T16:47:19.477Z,67.75
2016-03-09T16:48:19.621Z,68.32
2016-03-09T16:49:19.529Z,67.94
2016-03-09T16:50:19.579Z,68.41
2016-03-09T16:51:19.644Z,68.32
2016-03-09T16:52:19.599Z,68.32
2016-03-09T16:53:19.540Z,67.94
2016-03-09T16:54:19.683Z,68.41
2016-03-09T16:55:19.482Z,68.6
2016-03-09T16:56:19.485Z,68.7
2016-03-09T16:57:19.504Z,68.79
2016-03-09T16:58:19.334Z,67.94
2016-03-09T16:59:19.494Z,68.32
2016-03-09T17:00:19.496Z,68.79
2016-03-09T17:01:19.499Z,68.98
2016-03-09T17:02:19.534Z,69.17
2016-03-09T17:03:19.504Z,69.17
2016-03-09T17:04:19.507Z,69.27
2016-03-09T17:05:19.509Z,69.17
2016-03-09T17:06:19.528Z,69.08
2016-03-09T17:07:19.562Z,69.17
2016-03-09T17:08:19.533Z,69.08
2016-03-09T17:09:19.583Z,69.17
2016-03-09T17:10:19.632Z,69.17
2016-03-09T17:11:19.541Z,69.84
2016-03-09T17:12:19.575Z,69.74
2016-03-09T17:13:19.546Z,69.61
2016-03-09T17:14:19.565Z,69.52
2016-03-09T17:15:19.536Z,69.33
2016-03-09T17:16:19.555Z,69.36
2016-03-09T17:17:19.574Z,69.8
2016-03-09T17:18:19.544Z,69.71
2016-03-09T17:19:19.641Z,70.12
2016-03-09T17:20:19.535Z,70.09
2016-03-09T17:21:19.647Z,70.31
2016-03-09T17:22:19.587Z,70.09
2016-03-09T17:23:20.012Z,70.18
2016-03-09T17:24:19.529Z,70.28
2016-03-09T17:25:19.548Z,70.09
2016-03-09T17:26:19.551Z,70.37
2016-03-09T17:27:19.537Z,70.18
2016-03-09T17:28:19.650Z,70.47
2016-03-09T17:29:19.589Z,70.47
2016-03-09T17:30:19.545Z,70.37
2016-03-09T17:31:19.626Z,70.47
2016-03-09T17:32:19.503Z,70.65
2016-03-09T17:33:19.507Z,70.75
2016-03-09T17:34:19.728Z,70.09
2016-03-09T17:35:19.669Z,70.18
2016-03-09T17:36:19.625Z,70.18
2016-03-09T17:37:19.502Z,70.37
2016-03-09T17:38:19.583Z,70.75
2016-03-09T17:39:19.491Z,70.75
2016-03-09T17:40:19.510Z,70.65
2016-03-09T17:41:19.528Z,70.56
2016-03-09T17:42:19.515Z,70.37
2016-03-09T17:43:19.502Z,70.47
2016-03-09T17:44:19.489Z,70.56
2016-03-09T17:45:18.758Z,70.75
2016-03-09T17:46:19.495Z,70.47
2016-03-09T17:47:19.498Z,70.47
2016-03-09T17:48:19.500Z,70.28
2016-03-09T17:49:19.503Z,70.37
2016-03-09T17:50:19.505Z,70.28
2016-03-09T17:51:19.508Z,70.28
2016-03-09T17:52:19.558Z,70.18
2016-03-09T17:53:19.498Z,70.47
2016-03-09T17:54:19.501Z,70.84
2016-03-09T17:55:19.504Z,70.84
2016-03-09T17:56:19.521Z,70.84
2016-03-09T17:57:19.493Z,70.18
2016-03-09T17:58:19.495Z,70.84
2016-03-09T17:59:19.623Z,70.84
2016-03-09T18:00:19.501Z,70.56
2016-03-09T18:01:19.519Z,70.37
2016-03-09T18:02:19.491Z,70.84
2016-03-09T18:03:19.494Z,70.84
2016-03-09T18:04:19.497Z,70.94
2016-03-09T18:05:19.578Z,70.84
2016-03-09T18:06:19.502Z,70.84
2016-03-09T18:07:19.489Z,70.94
2016-03-09T18:08:19.508Z,71.13
2016-03-09T18:09:19.494Z,71.22
2016-03-09T18:10:19.591Z,71.32
2016-03-09T18:11:19.531Z,71.13
2016-03-09T18:12:19.502Z,71.03
2016-03-09T18:13:19.489Z,70.65
2016-03-09T18:14:19.491Z,71.03
2016-03-09T18:15:19.494Z,71.13
2016-03-09T18:16:19.497Z,70.94
2016-03-09T18:17:19.499Z,71.13
2016-03-09T18:18:19.487Z,70.84
2016-03-09T18:19:19.490Z,70.84
2016-03-09T18:20:19.493Z,71.03
2016-03-09T18:21:19.527Z,70.84
2016-03-09T18:22:19.529Z,71.03
2016-03-09T18:23:19.485Z,70.75
2016-03-09T18:24:19.488Z,71.13
2016-03-09T18:25:19.506Z,71.7
2016-03-09T18:26:19.540Z,71.22
2016-03-09T18:27:19.479Z,72.27
2016-03-09T18:28:19.482Z,71.89
2016-03-09T18:29:19.485Z,71.32
2016-03-09T18:30:19.629Z,71.51
2016-03-09T18:31:19.490Z,71.51
2016-03-09T18:32:19.526Z,71.32
2016-03-09T18:33:19.496Z,71.51
2016-03-09T18:34:19.561Z,71.8
2016-03-09T18:35:19.486Z,71.51
2016-03-09T18:36:19.489Z,72.17
2016-03-09T18:37:19.475Z,71.7
2016-03-09T18:38:19.478Z,72.27
2016-03-09T18:39:19.559Z,72.36
2016-03-09T18:40:19.484Z,72.27
2016-03-09T18:41:19.486Z,72.27
2016-03-09T18:42:19.489Z,72.08
2016-03-09T18:43:19.477Z,72.55
2016-03-09T18:44:19.480Z,72.64
2016-03-09T18:45:19.466Z,72.84
2016-03-09T18:46:19.469Z,72.55
2016-03-09T18:47:19.783Z,72.17
2016-03-09T18:48:19.474Z,72.93
2016-03-09T18:49:19.477Z,72.08
2016-03-09T18:50:19.463Z,72.17
2016-03-09T18:51:19.466Z,72.84
2016-03-09T18:52:19.468Z,72.55
2016-03-09T18:53:19.472Z,72.55
2016-03-09T18:54:19.459Z,72.45
2016-03-09T18:55:19.462Z,72.84
2016-03-09T18:56:19.480Z,72.74
2016-03-09T18:57:19.451Z,72.84
2016-03-09T18:58:32.188Z,72.84
2016-03-09T18:59:19.472Z,72.93
2016-03-09T19:00:19.459Z,72.84
2016-03-09T19:01:19.462Z,72.99
2016-03-09T19:02:19.449Z,73.03
2016-03-09T19:03:19.451Z,72.93
2016-03-09T19:04:19.454Z,72.74
2016-03-09T19:05:19.457Z,72.84
2016-03-09T19:06:19.445Z,72.84
2016-03-09T19:07:19.448Z,73.75
2016-03-09T19:08:19.450Z,73.75
2016-03-09T19:09:19.453Z,73.27
2016-03-09T19:10:19.642Z,73.37
2016-03-09T19:11:19.442Z,73.46
2016-03-09T19:12:19.444Z,74.03
2016-03-09T19:13:19.526Z,73.84
2016-03-09T19:14:19.443Z,73.94
2016-03-09T19:15:19.438Z,73.84
2016-03-09T19:16:19.439Z,74.32
2016-03-09T19:17:19.441Z,74.22
2016-03-09T19:18:19.445Z,74.32
2016-03-09T19:19:19.447Z,74.13
2016-03-09T19:20:19.277Z,74.13
2016-03-09T19:21:19.452Z,74.13
2016-03-09T19:22:19.266Z,73.94
2016-03-09T19:23:19.487Z,74.13
2016-03-09T19:24:19.428Z,74.32
2016-03-09T19:25:19.744Z,74.32
2016-03-09T19:26:19.429Z,74.13
2016-03-09T19:27:19.432Z,74.13
2016-03-09T19:28:19.434Z,74.13
2016-03-09T19:29:19.422Z,74.03
2016-03-09T19:30:19.425Z,74.6
2016-03-09T19:31:19.427Z,74.79
2016-03-09T19:32:19.414Z,74.32
2016-03-09T19:33:19.432Z,74.51
2016-03-09T19:34:19.451Z,74.88
2016-03-09T19:35:19.407Z,74.79
2016-03-09T19:36:19.425Z,74.6
2016-03-09T19:37:19.413Z,74.51
2016-03-09T19:38:19.416Z,74.6
2016-03-09T19:39:19.418Z,74.6
2016-03-09T19:40:19.397Z,74.69
2016-03-09T19:41:19.407Z,74.51
2016-03-09T19:42:19.242Z,74.51
2016-03-09T19:43:20.122Z,74.88
2016-03-09T19:44:19.592Z,74.98
2016-03-09T19:45:19.393Z,74.98
2016-03-09T19:46:19.428Z,75.17
2016-03-09T19:47:19.250Z,75.26
2016-03-09T19:48:19.227Z,74.69
2016-03-09T19:49:19.389Z,74.6
2016-03-09T19:50:19.391Z,75.26
2016-03-09T19:51:19.607Z,74.69
2016-03-09T19:52:19.416Z,74.88
2016-03-09T19:53:19.371Z,74.88
2016-03-09T19:54:19.716Z,75.55
2016-03-09T19:55:19.370Z,74.98
2016-03-09T19:56:19.375Z,75.84
2016-03-09T19:57:19.374Z,75.17
2016-03-09T19:58:19.368Z,75.17
2016-03-09T19:59:19.378Z,75.74
2016-03-09T20:00:19.361Z,75.64
2016-03-09T20:01:19.371Z,75.6
2016-03-09T20:02:19.361Z,75.23
2016-03-09T20:03:19.346Z,75.64
2016-03-09T20:04:19.357Z,75.07
2016-03-09T20:05:19.349Z,75.32
2016-03-09T20:06:19.351Z,75.51
2016-03-09T20:07:19.357Z,75.79
2016-03-09T20:08:19.341Z,75.32
2016-03-09T20:09:19.358Z,75.51
2016-03-09T20:10:19.342Z,75.51
2016-03-09T20:11:19.340Z,75.42
2016-03-09T20:12:19.336Z,75.74
2016-03-09T20:13:19.341Z,75.98
2016-03-09T20:14:19.347Z,75.7
2016-03-09T20:15:19.333Z,75.89
2016-03-09T20:16:19.335Z,75.7
2016-03-09T20:17:19.338Z,75.42
2016-03-09T20:18:19.333Z,75.51
2016-03-09T20:19:19.325Z,75.42
2016-03-09T20:20:19.372Z,75.6
2016-03-09T20:21:19.324Z,75.6
2016-03-09T20:22:19.311Z,75.6
2016-03-09T20:23:19.319Z,75.79
2016-03-09T20:24:19.324Z,75.98
2016-03-09T20:25:19.326Z,76.08
2016-03-09T20:26:19.304Z,75.7
2016-03-09T20:27:19.297Z,76.08
2016-03-09T20:28:19.308Z,75.98
2016-03-09T20:29:19.298Z,75.98
2016-03-09T20:30:19.314Z,75.98
2016-03-09T20:31:19.361Z,76.27
2016-03-09T20:32:19.293Z,75.6
2016-03-09T20:33:19.297Z,75.79
2016-03-09T20:34:19.292Z,75.89
2016-03-09T20:35:19.287Z,75.51
2016-03-09T20:36:19.283Z,75.79
2016-03-09T20:37:19.281Z,75.7
2016-03-09T20:38:19.288Z,75.7
2016-03-09T20:39:19.277Z,75.6
2016-03-09T20:40:19.284Z,75.7
2016-03-09T20:41:19.270Z,75.89
2016-03-09T20:42:19.270Z,75.7
2016-03-09T20:43:19.270Z,75.79
2016-03-09T20:44:19.270Z,75.7
2016-03-09T20:45:19.267Z,75.6
2016-03-09T20:46:19.258Z,75.7
2016-03-09T20:47:19.257Z,75.42
2016-03-09T20:48:19.348Z,75.89
2016-03-09T20:49:19.244Z,76.08
2016-03-09T20:50:19.313Z,76.08
2016-03-09T20:51:19.269Z,75.6
2016-03-09T20:52:19.381Z,75.51
2016-03-09T20:53:19.255Z,75.6
2016-03-09T20:54:19.303Z,75.79
2016-03-09T20:55:19.253Z,75.42
2016-03-09T20:56:19.328Z,75.51
2016-03-09T20:57:19.301Z,75.6
2016-03-09T20:58:19.239Z,75.6
2016-03-09T20:59:19.328Z,76.17
2016-03-09T21:00:19.307Z,76.17
2016-03-09T21:01:19.354Z,76.17
2016-03-09T21:02:19.327Z,75.7
2016-03-09T21:03:19.332Z,75.6
2016-03-09T21:04:19.345Z,75.79
2016-03-09T21:05:19.346Z,75.89
2016-03-09T21:06:19.228Z,76.17
2016-03-09T21:07:19.249Z,76.08
2016-03-09T21:08:19.282Z,76.08
2016-03-09T21:09:19.115Z,75.98
2016-03-09T21:10:19.240Z,75.98
2016-03-09T21:11:19.205Z,76.08
2016-03-09T21:12:19.208Z,76.17
2016-03-09T21:13:19.197Z,75.89
2016-03-09T21:14:19.204Z,76.36
2016-03-09T21:15:19.292Z,76.27
2016-03-09T21:16:19.275Z,75.89
2016-03-09T21:17:19.273Z,76.17
2016-03-09T21:18:19.280Z,76.36
2016-03-09T21:19:22.300Z,75.98
2016-03-09T21:20:18.500Z,75.98
2016-03-09T21:21:19.337Z,75.89
2016-03-09T21:22:19.222Z,76.17
2016-03-09T21:23:19.273Z,75.98
2016-03-09T21:24:19.237Z,75.98
2016-03-09T21:25:19.181Z,75.89
2016-03-09T21:26:19.261Z,76.27
2016-03-09T21:27:19.275Z,76.17
2016-03-09T21:28:19.174Z,76.84
2016-03-09T21:29:19.161Z,76.46
2016-03-09T21:30:19.236Z,76.17
2016-03-09T21:31:19.166Z,76.36
2016-03-09T21:32:19.156Z,76.36
2016-03-09T21:33:19.160Z,76.36
2016-03-09T21:34:19.162Z,76.27
2016-03-09T21:35:19.151Z,76.36
2016-03-09T21:36:19.163Z,76.08
2016-03-09T21:37:19.156Z,76.27
2016-03-09T21:38:19.159Z,76.17
2016-03-09T21:39:19.150Z,76.27
2016-03-09T21:40:19.168Z,76.84
2016-03-09T21:41:19.145Z,76.17
2016-03-09T21:42:19.169Z,76.36
2016-03-09T21:43:19.138Z,76.17
2016-03-09T21:44:19.144Z,76.36
2016-03-09T21:45:19.140Z,76.17
2016-03-09T21:46:19.136Z,76.65
2016-03-09T21:47:19.138Z,76.46
2016-03-09T21:48:19.281Z,76.27
2016-03-09T21:49:19.314Z,76.17
2016-03-09T21:50:19.130Z,76.65
2016-03-09T21:51:19.194Z,76.27
2016-03-09T21:52:19.136Z,76.65
2016-03-09T21:53:19.107Z,76.27
2016-03-09T21:54:19.141Z,76.17
2016-03-09T21:55:19.113Z,76.46
2016-03-09T21:56:19.115Z,76.55
2016-03-09T21:57:19.102Z,76.17
2016-03-09T21:58:18.448Z,76.08
2016-03-09T21:59:19.108Z,76.27
2016-03-09T22:00:19.110Z,76.27
2016-03-09T22:01:19.113Z,76.46
2016-03-09T22:02:19.616Z,76.27
2016-03-09T22:03:19.087Z,76.27
2016-03-09T22:04:19.152Z,76.27
2016-03-09T22:05:19.357Z,76.65
2016-03-09T22:06:19.101Z,76.36
2016-03-09T22:07:19.204Z,76.36
2016-03-09T22:08:19.660Z,76.17
2016-03-09T22:09:19.709Z,76.27
2016-03-09T22:10:19.103Z,76.17
2016-03-09T22:11:19.075Z,76.36
2016-03-09T22:12:19.077Z,76.36
2016-03-09T22:13:19.064Z,76.27
2016-03-09T22:14:19.083Z,76.46
2016-03-09T22:15:19.086Z,76.74
2016-03-09T22:16:19.072Z,76.65
2016-03-09T22:17:19.075Z,76.46
2016-03-09T22:18:19.061Z,76.46
2016-03-09T22:19:19.064Z,76.46
2016-03-09T22:20:19.067Z,76.36
2016-03-09T22:21:19.054Z,76.65
2016-03-09T22:22:19.057Z,76.46
2016-03-09T22:23:19.060Z,76.36
2016-03-09T22:24:19.046Z,76.84
2016-03-09T22:25:19.049Z,76.36
2016-03-09T22:26:19.052Z,76.93
2016-03-09T22:27:19.054Z,76.74
2016-03-09T22:28:19.058Z,76.74
2016-03-09T22:29:19.044Z,76.84
2016-03-09T22:30:19.047Z,76.74
2016-03-09T22:31:19.035Z,76.27
2016-03-09T22:32:19.037Z,76.74
2016-03-09T22:33:19.024Z,76.74
2016-03-09T22:34:19.043Z,76.74
2016-03-09T22:35:19.045Z,77.12
2016-03-09T22:36:19.032Z,76.84
2016-03-09T22:37:19.035Z,77.03
2016-03-09T22:38:19.022Z,76.84
2016-03-09T22:39:19.025Z,76.46
2016-03-09T22:40:19.011Z,76.93
2016-03-09T22:41:19.019Z,76.65
2016-03-09T22:42:19.008Z,76.65
2016-03-09T22:43:18.982Z,77.12
2016-03-09T22:44:18.971Z,76.84
2016-03-09T22:45:18.946Z,76.74
2016-03-09T22:46:18.942Z,76.84
2016-03-09T22:47:18.940Z,76.74
2016-03-09T22:48:18.924Z,76.84
2016-03-09T22:49:18.921Z,76.93
2016-03-09T22:50:18.903Z,76.27
2016-03-09T22:51:18.920Z,76.74
2016-03-09T22:52:18.905Z,76.55
2016-03-09T22:53:18.890Z,76.84
2016-03-09T22:54:18.907Z,76.74
2016-03-09T22:55:18.893Z,76.74
2016-03-09T22:56:18.895Z,76.74
2016-03-09T22:57:18.913Z,77.03
2016-03-09T22:58:18.884Z,76.93
2016-03-09T22:59:18.980Z,77.4
2016-03-09T23:00:18.872Z,77.12
2016-03-09T23:01:18.874Z,76.93
2016-03-09T23:02:18.877Z,77.03
2016-03-09T23:03:18.864Z,77.22
2016-03-09T23:04:18.868Z,77.31
2016-03-09T23:05:18.870Z,76.93
2016-03-09T23:06:18.873Z,77.03
2016-03-09T23:07:18.875Z,77.12
2016-03-09T23:08:18.862Z,77.03
2016-03-09T23:09:18.865Z,77.12
2016-03-09T23:10:18.867Z,77.03
2016-03-09T23:11:18.854Z,77.31
2016-03-09T23:12:18.872Z,77.12
2016-03-09T23:13:18.844Z,76.93
2016-03-09T23:14:18.847Z,76.74
2016-03-09T23:15:18.849Z,77.12
2016-03-09T23:16:18.852Z,77.03
2016-03-09T23:17:18.839Z,77.12
2016-03-09T23:18:18.842Z,77.31
2016-03-09T23:19:18.828Z,77.4
2016-03-09T23:20:18.847Z,77.12
2016-03-09T23:21:18.849Z,77.12
2016-03-09T23:22:18.837Z,77.4
2016-03-09T23:23:18.824Z,76.93
2016-03-09T23:24:18.827Z,77.12
2016-03-09T23:25:18.813Z,76.93
2016-03-09T23:26:18.832Z,76.74
2016-03-09T23:27:18.886Z,77.22
2016-03-09T23:28:18.869Z,77.5
2016-03-09T23:29:18.810Z,76.93
2016-03-09T23:30:18.855Z,77.4
2016-03-09T23:31:18.811Z,76.93
2016-03-09T23:32:18.829Z,77.22
2016-03-09T23:33:18.941Z,76.93
2016-03-09T23:34:18.850Z,77.03
2016-03-09T23:35:18.806Z,77.22
2016-03-09T23:36:18.808Z,77.12
2016-03-09T23:37:18.794Z,77.12
2016-03-09T23:38:18.797Z,77.22
2016-03-09T23:39:18.800Z,77.22
2016-03-09T23:40:18.788Z,77.12
2016-03-09T23:41:18.790Z,77.22
2016-03-09T23:42:18.622Z,77.59
2016-03-09T23:43:18.811Z,76.93
2016-03-09T23:44:18.783Z,77.22
2016-03-09T23:45:18.785Z,77.5
2016-03-09T23:46:18.773Z,77.5
2016-03-09T23:47:18.776Z,77.4
2016-03-09T23:48:18.794Z,77.4
2016-03-09T23:49:18.781Z,76.84
2016-03-09T23:50:18.783Z,77.4
2016-03-09T23:51:18.770Z,77.12
2016-03-09T23:52:18.773Z,77.22
2016-03-09T23:53:18.792Z,77.5
2016-03-09T23:54:18.762Z,77.59
2016-03-09T23:55:18.766Z,76.93
2016-03-09T23:56:18.768Z,77.22
2016-03-09T23:57:18.787Z,77.31
2016-03-09T23:58:18.773Z,77.03
2016-03-09T23:59:18.761Z,77.5
